Cokeville, Wyoming
Current Conditions -  °F | °C
As of 6:55 PM on Monday 20 Oct 2014 (Local Time) from KEMM Reporting Station
Scattered Clouds Scattered Clouds  
Wind Chill: 59°   Ceiling: Unl
Heat Index: 59°   Visibility: 10mi
Dew Point: 30°   Wind: 5mph
Humidity: 34%   Direction: 170°S
Pressure: 30.1"   Gusts: NA
Location:  42.08°N, 110.96°W
Report Text: KEMM 210055Z AUTO 17004KT 10SM SCT080 15/M01 A3010 RMK AO2
Loading
Personal Weather Stations






























Interactive Weather Map
Tropical Storm Tracking
New forecast layout! Learn more

10-Day Weather Forecast

Advertisements
Track Severe Weather on mobile